Weather at Chatham Municipal Airport

Public forecast

Using degrees Fahrenheit for public forecast. Weather courtesy of forecast.io.

Current aviation weather report (METAR) for Chatham Municipal Airport

Retrieved 2020/11/27 22:52 UTC (11 minutes ago):

KCQX 272252Z AUTO 00000KT 10SM OVC055 11/09 A2998 RMK AO2 SLP154 T01110094

Closest aviation forecast (TAF) to Chatham Municipal Airport

Closest forecast is Barnstable Municipal Boardman Polando Field, 13.1 nm (24.3 km) W. Retrieved 2020/11/27 18:33 UTC (5 hours ago):

TAF KHYA 271730Z 2718/2818 VRB03KT P6SM OVC050 FM272100 26005KT P6SM BKN030 FM280200 27006KT P6SM OVC020 FM280400 30007KT P6SM BKN035 FM280800 31008KT P6SM BKN060 FM281400 30008KT P6SM FEW150